Aviation Digital Data Service (ADDS)

Output produced by METARs form (2151 UTC 16 February 2019)
found at http://www.aviationweather.gov/metar/data/
 
METAR text: VGEG 161600Z 33004KT 3500 HZ SCT018 20/18 Q1012 NOSIG
Conditions at: VGEG (CHITTAGONG (CV/M, BD) observed 1600 UTC 16 February 2019
Temperature: 20.0°C (68°F)
Dewpoint: 18.0°C (64°F) [RH = 88%]
Pressure (altimeter): 29.88 inches Hg (1012.0 mb)
Winds: from the NNW (330 degrees) at 5 MPH (4 knots; 2.1 m/s)
Visibility: 2.17 miles (3.49 km)
Ceiling: at least 12,000 feet AGL
Clouds: scattered clouds at 1800 feet AGL
Weather: HZ  (haze)

METAR text: VGEG 161500Z 00000KT 4000 HZ FEW018 SCT100 21/18 Q1012 NOSIG
Conditions at: VGEG (CHITTAGONG (CV/M, BD) observed 1500 UTC 16 February 2019
Temperature: 21.0°C (70°F)
Dewpoint: 18.0°C (64°F) [RH = 83%]
Pressure (altimeter): 29.88 inches Hg (1012.0 mb)
Winds: calm
Visibility: 2.49 miles (4.01 km)
Ceiling: at least 12,000 feet AGL
Clouds: few clouds at 1800 feet AGL
scattered clouds at 10000 feet AGL
Weather: HZ  (haze)

METAR text: VGEG 161400Z 33006KT 4000 HZ FEW018 24/17 Q1011 NOSIG
Conditions at: VGEG (CHITTAGONG (CV/M, BD) observed 1400 UTC 16 February 2019
Temperature: 24.0°C (75°F)
Dewpoint: 17.0°C (63°F) [RH = 65%]
Pressure (altimeter): 29.85 inches Hg (1011.0 mb)
Winds: from the NNW (330 degrees) at 7 MPH (6 knots; 3.1 m/s)
Visibility: 2.49 miles (4.01 km)
Ceiling: at least 12,000 feet AGL
Clouds: few clouds at 1800 feet AGL
Weather: HZ  (haze)

METAR text: VGEG 161300Z 33008KT 4000 HZ SCT018 OVC080 25/17 Q1011 NOSIG
Conditions at: VGEG (CHITTAGONG (CV/M, BD) observed 1300 UTC 16 February 2019
Temperature: 25.0°C (77°F)
Dewpoint: 17.0°C (63°F) [RH = 61%]
Pressure (altimeter): 29.85 inches Hg (1011.0 mb)
Winds: from the NNW (330 degrees) at 9 MPH (8 knots; 4.1 m/s)
Visibility: 2.49 miles (4.01 km)
Ceiling: 8000 feet AGL
Clouds: scattered clouds at 1800 feet AGL
overcast cloud deck at 8000 feet AGL
Weather: HZ  (haze)

METAR text: VGEG 161200Z 33010KT 4000 HZ SCT018 OVC080 25/16 Q1011 NOSIG
Conditions at: VGEG (CHITTAGONG (CV/M, BD) observed 1200 UTC 16 February 2019
Temperature: 25.0°C (77°F)
Dewpoint: 16.0°C (61°F) [RH = 57%]
Pressure (altimeter): 29.85 inches Hg (1011.0 mb)
Winds: from the NNW (330 degrees) at 12 MPH (10 knots; 5.1 m/s)
Visibility: 2.49 miles (4.01 km)
Ceiling: 8000 feet AGL
Clouds: scattered clouds at 1800 feet AGL
overcast cloud deck at 8000 feet AGL
Weather: HZ  (haze)

METAR text: VGEG 151100Z 36014KT 4000 HZ SCT018 OVC080 25/17 Q1012 NOSIG
Conditions at: VGEG (CHITTAGONG (CV/M, BD) observed 1100 UTC 16 February 2019
Temperature: 25.0°C (77°F)
Dewpoint: 17.0°C (63°F) [RH = 61%]
Pressure (altimeter): 29.88 inches Hg (1012.0 mb)
Winds: from the N (360 degrees) at 16 MPH (14 knots; 7.2 m/s)
Visibility: 2.49 miles (4.01 km)
Ceiling: 8000 feet AGL
Clouds: scattered clouds at 1800 feet AGL
overcast cloud deck at 8000 feet AGL
Weather: HZ  (haze)

METAR text: VGEG 151000Z 30018KT 4000 HZ SCT018 OVC080 26/17 Q1012 NOSIG
Conditions at: VGEG (CHITTAGONG (CV/M, BD) observed 1000 UTC 16 February 2019
Temperature: 26.0°C (79°F)
Dewpoint: 17.0°C (63°F) [RH = 58%]
Pressure (altimeter): 29.88 inches Hg (1012.0 mb)
Winds: from the WNW (300 degrees) at 21 MPH (18 knots; 9.3 m/s)
Visibility: 2.49 miles (4.01 km)
Ceiling: 8000 feet AGL
Clouds: scattered clouds at 1800 feet AGL
overcast cloud deck at 8000 feet AGL
Weather: HZ  (haze)

METAR text: VGEG 150900Z 33024KT 4000 HZ SCT018 OVC080 26/16 Q1013 NOSIG
Conditions at: VGEG (CHITTAGONG (CV/M, BD) observed 0900 UTC 16 February 2019
Temperature: 26.0°C (79°F)
Dewpoint: 16.0°C (61°F) [RH = 54%]
Pressure (altimeter): 29.91 inches Hg (1013.0 mb)
Winds: from the NNW (330 degrees) at 28 MPH (24 knots; 12.3 m/s)
Visibility: 2.49 miles (4.01 km)
Ceiling: 8000 feet AGL
Clouds: scattered clouds at 1800 feet AGL
overcast cloud deck at 8000 feet AGL
Weather: HZ  (haze)

METAR text: VGEG 150800Z 33022KT 4000 HZ SCT018 OVC080 28/16 Q1014 NOSIG
Conditions at: VGEG (CHITTAGONG (CV/M, BD) observed 0800 UTC 16 February 2019
Temperature: 28.0°C (82°F)
Dewpoint: 16.0°C (61°F) [RH = 48%]
Pressure (altimeter): 29.94 inches Hg (1014.0 mb)
Winds: from the NNW (330 degrees) at 25 MPH (22 knots; 11.3 m/s)
Visibility: 2.49 miles (4.01 km)
Ceiling: 8000 feet AGL
Clouds: scattered clouds at 1800 feet AGL
overcast cloud deck at 8000 feet AGL
Weather: HZ  (haze)

METAR text: VGEG 160700Z 36020KT 4000 HZ SCT018 BKN100 27/16 Q1014 NOSIG
Conditions at: VGEG (CHITTAGONG (CV/M, BD) observed 0700 UTC 16 February 2019
Temperature: 27.0°C (81°F)
Dewpoint: 16.0°C (61°F) [RH = 51%]
Pressure (altimeter): 29.94 inches Hg (1014.0 mb)
Winds: from the N (360 degrees) at 23 MPH (20 knots; 10.3 m/s)
Visibility: 2.49 miles (4.01 km)
Ceiling: 10000 feet AGL
Clouds: scattered clouds at 1800 feet AGL
broken clouds at 10000 feet AGL
Weather: HZ  (haze)

METAR text: VGEG 160600Z 36016KT 4000 HZ SCT018 BKN100 27/17 Q1015 TEMPO RA/DZ
Conditions at: VGEG (CHITTAGONG (CV/M, BD) observed 0600 UTC 16 February 2019
Temperature: 27.0°C (81°F)
Dewpoint: 17.0°C (63°F) [RH = 54%]
Pressure (altimeter): 29.97 inches Hg (1015.0 mb)
Winds: from the N (360 degrees) at 18 MPH (16 knots; 8.2 m/s)
Visibility: 2.49 miles (4.01 km)
Ceiling: 10000 feet AGL
Clouds: scattered clouds at 1800 feet AGL
broken clouds at 10000 feet AGL
Weather: HZ  (haze)

METAR text: VGEG 160500Z 33015KT 4000 HZ SCT018 SCT090 26/12 Q1016 NOSIG
Conditions at: VGEG (CHITTAGONG (CV/M, BD) observed 0500 UTC 16 February 2019
Temperature: 26.0°C (79°F)
Dewpoint: 12.0°C (54°F) [RH = 42%]
Pressure (altimeter): 30.00 inches Hg (1016.0 mb)
Winds: from the NNW (330 degrees) at 17 MPH (15 knots; 7.7 m/s)
Visibility: 2.49 miles (4.01 km)
Ceiling: at least 12,000 feet AGL
Clouds: scattered clouds at 1800 feet AGL
scattered clouds at 9000 feet AGL
Weather: HZ  (haze)

METAR text: VGEG 160400Z 33012KT 4000 HZ FEW300 25/14 Q1016 NOSIG
Conditions at: VGEG (CHITTAGONG (CV/M, BD) observed 0400 UTC 16 February 2019
Temperature: 25.0°C (77°F)
Dewpoint: 14.0°C (57°F) [RH = 50%]
Pressure (altimeter): 30.00 inches Hg (1016.0 mb)
Winds: from the NNW (330 degrees) at 14 MPH (12 knots; 6.2 m/s)
Visibility: 2.49 miles (4.01 km)
Ceiling: at least 12,000 feet AGL
Clouds: few clouds at 30000 feet AGL
Weather: HZ  (haze)

METAR text: VGEG 160300Z 27003KT 4000 HZ FEW300 24/14 Q1016 NOSIG
Conditions at: VGEG (CHITTAGONG (CV/M, BD) observed 0300 UTC 16 February 2019
Temperature: 24.0°C (75°F)
Dewpoint: 14.0°C (57°F) [RH = 54%]
Pressure (altimeter): 30.00 inches Hg (1016.0 mb)
Winds: from the W (270 degrees) at 3 MPH (3 knots; 1.5 m/s)
Visibility: 2.49 miles (4.01 km)
Ceiling: at least 12,000 feet AGL
Clouds: few clouds at 30000 feet AGL
Weather: HZ  (haze)

METAR text: VGEG 160200Z 00000KT 4000 HZ SCT100 21/13 Q1015 NOSIG
Conditions at: VGEG (CHITTAGONG (CV/M, BD) observed 0200 UTC 16 February 2019
Temperature: 21.0°C (70°F)
Dewpoint: 13.0°C (55°F) [RH = 60%]
Pressure (altimeter): 29.97 inches Hg (1015.0 mb)
Winds: calm
Visibility: 2.49 miles (4.01 km)
Ceiling: at least 12,000 feet AGL
Clouds: scattered clouds at 10000 feet AGL
Weather: HZ  (haze)

METAR text: VGEG 160100Z 00000KT 4000 HZ SCT100 19/13 Q1014 NOSIG
Conditions at: VGEG (CHITTAGONG (CV/M, BD) observed 0100 UTC 16 February 2019
Temperature: 19.0°C (66°F)
Dewpoint: 13.0°C (55°F) [RH = 68%]
Pressure (altimeter): 29.94 inches Hg (1014.0 mb)
Winds: calm
Visibility: 2.49 miles (4.01 km)
Ceiling: at least 12,000 feet AGL
Clouds: scattered clouds at 10000 feet AGL
Weather: HZ  (haze)

METAR text: VGEG 160000Z 35004KT 5000 HZ NSC 19/13 Q1013 NOSIG
Conditions at: VGEG (CHITTAGONG (CV/M, BD) observed 0000 UTC 16 February 2019
Temperature: 19.0°C (66°F)
Dewpoint: 13.0°C (55°F) [RH = 68%]
Pressure (altimeter): 29.91 inches Hg (1013.0 mb)
Winds: from the N (350 degrees) at 5 MPH (4 knots; 2.1 m/s)
Visibility: 3 miles ( 5 km)
Ceiling: at least 12,000 feet AGL
Clouds: sky clear below 12,000 feet AGL
Weather: HZ  (haze)

METAR text: VGEG 151600Z 34006KT 5000 HZ NSC 24/14 Q1014 NOSIG
Conditions at: VGEG (CHITTAGONG (CV/M, BD) observed 1600 UTC 15 February 2019
Temperature: 24.0°C (75°F)
Dewpoint: 14.0°C (57°F) [RH = 54%]
Pressure (altimeter): 29.94 inches Hg (1014.0 mb)
Winds: from the NNW (340 degrees) at 7 MPH (6 knots; 3.1 m/s)
Visibility: 3 miles ( 5 km)
Ceiling: at least 12,000 feet AGL
Clouds: sky clear below 12,000 feet AGL
Weather: HZ  (haze)

METAR text: VGEG 151500Z 35010KT 5000 HZ NSC 25/14 Q1014 NOSIG
Conditions at: VGEG (CHITTAGONG (CV/M, BD) observed 1500 UTC 15 February 2019
Temperature: 25.0°C (77°F)
Dewpoint: 14.0°C (57°F) [RH = 50%]
Pressure (altimeter): 29.94 inches Hg (1014.0 mb)
Winds: from the N (350 degrees) at 12 MPH (10 knots; 5.1 m/s)
Visibility: 3 miles ( 5 km)
Ceiling: at least 12,000 feet AGL
Clouds: sky clear below 12,000 feet AGL
Weather: HZ  (haze)

METAR text: VGEG 151400Z 33010KT 4000 HZ NSC 25/14 Q1014 NOSIG
Conditions at: VGEG (CHITTAGONG (CV/M, BD) observed 1400 UTC 15 February 2019
Temperature: 25.0°C (77°F)
Dewpoint: 14.0°C (57°F) [RH = 50%]
Pressure (altimeter): 29.94 inches Hg (1014.0 mb)
Winds: from the NNW (330 degrees) at 12 MPH (10 knots; 5.1 m/s)
Visibility: 2.49 miles (4.01 km)
Ceiling: at least 12,000 feet AGL
Clouds: sky clear below 12,000 feet AGL
Weather: HZ  (haze)

METAR text: VGEG 151300Z 33012KT 4000 HZ NSC 27/14 Q1013 NOSIG
Conditions at: VGEG (CHITTAGONG (CV/M, BD) observed 1300 UTC 15 February 2019
Temperature: 27.0°C (81°F)
Dewpoint: 14.0°C (57°F) [RH = 45%]
Pressure (altimeter): 29.91 inches Hg (1013.0 mb)
Winds: from the NNW (330 degrees) at 14 MPH (12 knots; 6.2 m/s)
Visibility: 2.49 miles (4.01 km)
Ceiling: at least 12,000 feet AGL
Clouds: sky clear below 12,000 feet AGL
Weather: HZ  (haze)

METAR text: VGEG 151200Z 33008KT 4000 HZ NSC 28/14 Q1012 NOSIG
Conditions at: VGEG (CHITTAGONG (CV/M, BD) observed 1200 UTC 15 February 2019
Temperature: 28.0°C (82°F)
Dewpoint: 14.0°C (57°F) [RH = 42%]
Pressure (altimeter): 29.88 inches Hg (1012.0 mb)
Winds: from the NNW (330 degrees) at 9 MPH (8 knots; 4.1 m/s)
Visibility: 2.49 miles (4.01 km)
Ceiling: at least 12,000 feet AGL
Clouds: sky clear below 12,000 feet AGL
Weather: HZ  (haze)

METAR text: VGEG 151100Z 33010KT 4000 HZ NSC 28/13 Q1012 NOSIG
Conditions at: VGEG (CHITTAGONG (CV/M, BD) observed 1100 UTC 15 February 2019
Temperature: 28.0°C (82°F)
Dewpoint: 13.0°C (55°F) [RH = 40%]
Pressure (altimeter): 29.88 inches Hg (1012.0 mb)
Winds: from the NNW (330 degrees) at 12 MPH (10 knots; 5.1 m/s)
Visibility: 2.49 miles (4.01 km)
Ceiling: at least 12,000 feet AGL
Clouds: sky clear below 12,000 feet AGL
Weather: HZ  (haze)

METAR text: VGEG 151000Z 30012KT 4500 HZ NSC 30/10 Q1012 NOSIG
Conditions at: VGEG (CHITTAGONG (CV/M, BD) observed 1000 UTC 15 February 2019
Temperature: 30.0°C (86°F)
Dewpoint: 10.0°C (50°F) [RH = 29%]
Pressure (altimeter): 29.88 inches Hg (1012.0 mb)
Winds: from the WNW (300 degrees) at 14 MPH (12 knots; 6.2 m/s)
Visibility: 2.80 miles (4.51 km)
Ceiling: at least 12,000 feet AGL
Clouds: sky clear below 12,000 feet AGL
Weather: HZ  (haze)

Forecast for: VGEG (CHITTAGONG (CV/M, BD)
Text: TAF VGEG 161700Z 1618/1724 35008KT 5000 HZ SCT015
Forecast period: 1800 UTC 16 February 2019 to 0000 UTC 17 February 2019
Forecast type: FROM: standard forecast or significant change
Winds: from the N (350 degrees) at 9 MPH (8 knots; 4.1 m/s)
Visibility: 3 miles (5 km)
Ceiling: at least 12,000 feet AGL
Clouds: scattered clouds at 1500 feet AGL
Weather: HZ  (haze)
Text: BECMG 1700/1702 00000KT 1500 BR SCT014
Forecast period: 0000 to 1200 UTC 17 February 2019
Forecast type: BECOMING: Conditions expected to become as follows by 0200 UTC 17 February 2019
Winds: calm
Visibility: 0.93 miles (1.50 km)
Ceiling: at least 12,000 feet AGL
Clouds: scattered clouds at 1400 feet AGL
Weather: BR  (mist)
Text: BECMG 1712/1714 02008KT 3500 RA/DZ SCT015 BKN100
Forecast period: 1200 to 2000 UTC 17 February 2019
Forecast type: BECOMING: Conditions expected to become as follows by 1400 UTC 17 February 2019
Winds: from the NNE (20 degrees) at 9 MPH (8 knots; 4.1 m/s)
Visibility: 2.17 miles (3.49 km)
Ceiling: 10000 feet AGL
Clouds: scattered clouds at 1500 feet AGL
broken clouds at 10000 feet AGL
Weather: RA DZ  (moderate rain, moderate drizzle)
Text: BECMG 1720/1722 16008KT 3400 DZ SCT015 BKN100
Forecast period: 2000 UTC 17 February 2019 to 0000 UTC 18 February 2019
Forecast type: BECOMING: Conditions expected to become as follows by 2200 UTC 17 February 2019
Winds: from the SSE (160 degrees) at 9 MPH (8 knots; 4.1 m/s)
Visibility: 2.11 miles (3.40 km)
Ceiling: 10000 feet AGL
Clouds: scattered clouds at 1500 feet AGL
broken clouds at 10000 feet AGL
Weather: DZ  (moderate drizzle)